createdAt,value
2018-10-17T00:02:13.619Z,8.70
2018-10-17T00:04:41.296Z,8.37
2018-10-17T00:07:09.029Z,8.80
2018-10-17T00:09:36.665Z,9.10
2018-10-17T00:12:04.467Z,8.20
2018-10-17T00:14:32.105Z,8.33
2018-10-17T00:16:59.780Z,8.27
2018-10-17T00:19:27.369Z,9.80
2018-10-17T00:21:55.083Z,9.10
2018-10-17T00:24:22.727Z,8.23
2018-10-17T00:26:50.388Z,7.67
2018-10-17T00:29:18.041Z,9.97
2018-10-17T00:31:45.713Z,8.27
2018-10-17T00:34:13.581Z,8.57
2018-10-17T00:36:41.236Z,8.80
2018-10-17T00:39:10.267Z,8.73
2018-10-17T00:41:38.018Z,8.47
2018-10-17T00:44:05.700Z,8.03
2018-10-17T00:46:33.402Z,8.53
2018-10-17T00:49:01.226Z,8.10
2018-10-17T00:51:28.875Z,8.67
2018-10-17T00:53:56.478Z,8.47
2018-10-17T00:56:24.162Z,9.50
2018-10-17T00:59:04.657Z,9.40
2018-10-17T01:01:32.230Z,8.90
2018-10-17T01:03:59.836Z,8.53
2018-10-17T01:06:27.463Z,8.30
2018-10-17T01:08:55.101Z,8.83
2018-10-17T01:11:22.784Z,8.90
2018-10-17T01:13:50.527Z,7.93
2018-10-17T01:16:18.160Z,8.17
2018-10-17T01:18:45.817Z,8.37
2018-10-17T01:21:13.409Z,9.07
2018-10-17T01:23:41.049Z,8.20
2018-10-17T01:26:08.664Z,8.93
2018-10-17T01:28:36.252Z,8.67
2018-10-17T01:31:04.305Z,8.80
2018-10-17T01:33:32.029Z,8.63
2018-10-17T01:35:59.639Z,9.37
2018-10-17T01:38:27.265Z,9.37
2018-10-17T01:40:55.031Z,8.90
2018-10-17T01:43:22.582Z,7.63
2018-10-17T01:45:50.825Z,8.53
2018-10-17T01:48:18.507Z,8.40
2018-10-17T01:50:46.111Z,8.10
2018-10-17T01:53:13.817Z,8.80
2018-10-17T01:55:41.534Z,7.90
2018-10-17T01:58:09.191Z,8.60
2018-10-17T02:00:36.782Z,8.57
2018-10-17T02:03:04.515Z,8.40
2018-10-17T02:05:32.147Z,9.40
2018-10-17T02:07:59.782Z,8.13
2018-10-17T02:10:27.415Z,8.33
2018-10-17T02:12:55.050Z,8.30
2018-10-17T02:15:22.623Z,8.63
2018-10-17T02:17:50.375Z,8.67
2018-10-17T02:20:17.979Z,9.00
2018-10-17T02:22:45.679Z,7.90
2018-10-17T02:25:13.402Z,9.27
2018-10-17T02:27:40.940Z,7.87
2018-10-17T02:30:08.744Z,8.43
2018-10-17T02:32:36.260Z,9.07
2018-10-17T02:35:09.724Z,9.20
2018-10-17T02:37:37.306Z,8.63
2018-10-17T02:40:05.250Z,8.93
2018-10-17T02:42:32.852Z,8.23
2018-10-17T02:45:00.486Z,8.93
2018-10-17T02:47:28.116Z,7.70
2018-10-17T02:49:55.750Z,7.90
2018-10-17T02:52:23.480Z,8.60
2018-10-17T02:54:51.138Z,8.80
2018-10-17T02:57:18.810Z,8.57
2018-10-17T02:59:46.433Z,8.43
2018-10-17T03:02:14.174Z,9.03
2018-10-17T03:04:41.802Z,8.50
2018-10-17T03:07:09.619Z,8.37
2018-10-17T03:09:37.262Z,8.20
2018-10-17T03:12:05.049Z,8.70
2018-10-17T03:14:32.666Z,8.60
2018-10-17T03:17:00.308Z,7.97
2018-10-17T03:19:27.920Z,8.53
2018-10-17T03:21:55.588Z,7.90
2018-10-17T03:24:23.323Z,7.70
2018-10-17T03:26:50.986Z,8.23
2018-10-17T03:29:18.839Z,9.27
2018-10-17T03:31:46.425Z,8.70
2018-10-17T03:34:14.214Z,11.00
2018-10-17T03:36:41.899Z,9.50
2018-10-17T03:39:11.182Z,9.13
2018-10-17T03:41:39.150Z,8.53
2018-10-17T03:44:07.722Z,9.07
2018-10-17T03:46:35.370Z,7.90
2018-10-17T03:49:03.285Z,8.80
2018-10-17T03:51:31.020Z,8.37
2018-10-17T03:53:58.997Z,8.90
2018-10-17T03:56:26.871Z,10.17
2018-10-17T03:58:54.663Z,8.67
2018-10-17T04:01:22.275Z,10.60
2018-10-17T04:03:49.992Z,9.90
2018-10-17T04:06:17.598Z,9.83
2018-10-17T04:08:45.303Z,10.00
2018-10-17T04:11:13.081Z,8.30
2018-10-17T04:13:40.655Z,8.87
2018-10-17T04:16:08.350Z,9.57
2018-10-17T04:18:36.407Z,10.60
2018-10-17T04:21:04.836Z,9.80
2018-10-17T04:23:32.466Z,9.17
2018-10-17T04:26:00.127Z,9.47
2018-10-17T04:28:27.731Z,10.70
2018-10-17T04:30:55.391Z,10.13
2018-10-17T04:33:23.044Z,9.63
2018-10-17T04:35:50.752Z,9.90
2018-10-17T04:38:18.415Z,9.50
2018-10-17T04:40:46.006Z,9.90
2018-10-17T04:43:13.639Z,9.20
2018-10-17T04:45:41.322Z,9.60
2018-10-17T04:48:09.081Z,8.37
2018-10-17T04:50:36.710Z,10.37
2018-10-17T04:53:04.398Z,8.90
2018-10-17T04:55:31.990Z,10.20
2018-10-17T04:57:59.620Z,9.70
2018-10-17T05:00:27.234Z,10.10
2018-10-17T05:02:54.843Z,10.13
2018-10-17T05:05:22.480Z,9.77
2018-10-17T05:07:50.090Z,11.00
2018-10-17T05:10:17.711Z,10.37
2018-10-17T05:12:45.439Z,10.63
2018-10-17T05:15:13.103Z,10.77
2018-10-17T05:17:40.828Z,9.73
2018-10-17T05:20:08.576Z,10.20
2018-10-17T05:22:36.191Z,10.03
2018-10-17T05:25:04.954Z,9.50
2018-10-17T05:27:32.534Z,9.83
2018-10-17T05:30:00.203Z,10.30
2018-10-17T05:32:27.869Z,10.37
2018-10-17T05:34:56.320Z,9.37
2018-10-17T05:37:24.031Z,10.60
2018-10-17T05:39:51.640Z,9.83
2018-10-17T05:42:19.238Z,10.50
2018-10-17T05:44:46.879Z,11.80
2018-10-17T05:47:14.593Z,11.43
2018-10-17T05:49:42.351Z,13.50
2018-10-17T05:52:09.955Z,24.50
2018-10-17T05:54:37.610Z,14.43
2018-10-17T05:57:05.727Z,11.90
2018-10-17T05:59:33.393Z,11.40
2018-10-17T06:02:04.132Z,11.40
2018-10-17T06:04:31.643Z,12.97
2018-10-17T06:06:59.436Z,12.37
2018-10-17T06:09:27.051Z,11.23
2018-10-17T06:11:54.798Z,10.33
2018-10-17T06:14:22.490Z,12.43
2018-10-17T06:16:50.139Z,10.97
2018-10-17T06:19:17.746Z,11.50
2018-10-17T06:21:45.440Z,10.10
2018-10-17T06:24:13.058Z,10.67
2018-10-17T06:26:40.780Z,11.33
2018-10-17T06:29:08.534Z,11.93
2018-10-17T06:31:36.070Z,10.67
2018-10-17T06:34:03.734Z,10.87
2018-10-17T06:36:31.427Z,10.90
2018-10-17T06:38:59.047Z,10.97
2018-10-17T06:41:26.778Z,10.57
2018-10-17T06:43:54.387Z,11.17
2018-10-17T06:46:22.016Z,11.27
2018-10-17T06:48:49.753Z,11.50
2018-10-17T06:51:17.374Z,11.87
2018-10-17T06:53:45.051Z,11.00
2018-10-17T06:56:12.642Z,11.57
2018-10-17T06:58:40.224Z,12.50
2018-10-17T07:01:07.904Z,12.90
2018-10-17T07:03:35.475Z,11.83
2018-10-17T07:06:03.196Z,12.40
2018-10-17T07:08:31.029Z,11.53
2018-10-17T07:10:58.595Z,13.70
2018-10-17T07:13:26.301Z,12.07
2018-10-17T07:15:53.992Z,13.10
2018-10-17T07:18:21.729Z,12.43
2018-10-17T07:20:49.363Z,12.93
2018-10-17T07:23:17.106Z,12.40
2018-10-17T07:25:45.451Z,12.70
2018-10-17T07:28:13.290Z,13.50
2018-10-17T07:30:41.044Z,12.30
2018-10-17T07:33:08.935Z,12.27
2018-10-17T07:35:36.627Z,13.00
2018-10-17T07:38:05.136Z,13.40
2018-10-17T07:40:32.946Z,13.00
2018-10-17T07:43:00.626Z,12.93
2018-10-17T07:45:28.256Z,12.00
2018-10-17T07:47:55.888Z,12.63
2018-10-17T07:50:23.494Z,13.80
2018-10-17T07:52:51.214Z,12.17
2018-10-17T07:55:18.804Z,13.03
2018-10-17T07:57:46.405Z,11.53
2018-10-17T08:00:14.409Z,14.50
2018-10-17T08:02:41.968Z,12.10
2018-10-17T08:05:10.112Z,12.97
2018-10-17T08:07:37.716Z,13.43
2018-10-17T08:10:07.478Z,13.50
2018-10-17T08:12:35.055Z,11.97
2018-10-17T08:15:02.785Z,13.10
2018-10-17T08:17:30.503Z,13.47
2018-10-17T08:19:58.202Z,12.73
2018-10-17T08:22:25.858Z,13.40
2018-10-17T08:24:53.490Z,13.97
2018-10-17T08:27:21.133Z,12.77
2018-10-17T08:29:48.906Z,14.43
2018-10-17T08:32:16.507Z,12.80
2018-10-17T08:34:44.123Z,13.70
2018-10-17T08:37:12.102Z,14.83
2018-10-17T08:39:39.315Z,13.37
2018-10-17T08:42:07.191Z,12.93
2018-10-17T08:44:34.878Z,15.13
2018-10-17T08:47:02.541Z,12.40
2018-10-17T08:49:30.244Z,11.63
2018-10-17T08:51:57.877Z,12.67
2018-10-17T08:54:25.475Z,11.43
2018-10-17T08:56:53.104Z,12.10
2018-10-17T08:59:20.806Z,13.63
2018-10-17T09:01:48.492Z,11.63
2018-10-17T09:04:16.102Z,13.67
2018-10-17T09:06:43.719Z,15.37
2018-10-17T09:09:12.794Z,13.43
2018-10-17T09:11:40.880Z,13.67
2018-10-17T09:14:08.919Z,11.93
2018-10-17T09:16:36.559Z,12.07
2018-10-17T09:19:04.270Z,12.70
2018-10-17T09:21:32.122Z,12.97
2018-10-17T09:24:00.188Z,13.80
2018-10-17T09:26:27.802Z,13.30
2018-10-17T09:28:55.434Z,11.93
2018-10-17T09:31:23.054Z,12.10
2018-10-17T09:33:50.669Z,11.60
2018-10-17T09:36:18.327Z,12.73
2018-10-17T09:38:46.090Z,11.07
2018-10-17T09:41:13.742Z,12.97
2018-10-17T09:43:41.623Z,10.40
2018-10-17T09:46:17.247Z,9.03
2018-10-17T09:48:44.921Z,10.83
2018-10-17T09:51:12.538Z,9.50
2018-10-17T09:53:40.150Z,9.83
2018-10-17T09:56:08.870Z,10.10
2018-10-17T09:58:36.516Z,10.20
2018-10-17T10:01:09.971Z,7.77
2018-10-17T10:03:37.602Z,7.40
2018-10-17T10:06:05.380Z,7.53
2018-10-17T10:08:32.974Z,7.60
2018-10-17T10:11:00.609Z,6.13
2018-10-17T10:13:28.228Z,7.97
2018-10-17T10:15:55.924Z,6.83
2018-10-17T10:18:23.638Z,7.57
2018-10-17T10:20:51.359Z,6.83
2018-10-17T10:23:19.052Z,7.43
2018-10-17T10:25:46.642Z,6.80
2018-10-17T10:28:14.379Z,8.23
2018-10-17T10:30:41.955Z,6.80
2018-10-17T10:33:09.604Z,6.97
2018-10-17T10:35:37.268Z,7.30
2018-10-17T10:38:05.598Z,8.00
2018-10-17T10:40:33.930Z,7.40
2018-10-17T10:43:01.610Z,7.53
2018-10-17T10:45:29.277Z,7.60
2018-10-17T10:47:57.031Z,7.33
2018-10-17T10:50:24.611Z,8.00
2018-10-17T10:52:52.248Z,6.67
2018-10-17T10:55:19.910Z,6.80
2018-10-17T10:57:47.536Z,7.00
2018-10-17T11:00:15.266Z,7.50
2018-10-17T11:02:42.867Z,7.20
2018-10-17T11:05:10.659Z,6.77
2018-10-17T11:07:38.282Z,6.93
2018-10-17T11:10:06.081Z,7.10
2018-10-17T11:12:33.690Z,6.40
2018-10-17T11:15:01.578Z,5.77
2018-10-17T11:17:29.090Z,6.70
2018-10-17T11:19:56.740Z,6.90
2018-10-17T11:22:24.398Z,6.63
2018-10-17T11:24:52.074Z,6.80
2018-10-17T11:27:19.784Z,6.80
2018-10-17T11:29:47.443Z,5.73
2018-10-17T11:32:15.058Z,6.50
2018-10-17T11:34:42.725Z,6.30
2018-10-17T11:37:10.346Z,5.90
2018-10-17T11:39:37.976Z,6.37
2018-10-17T11:42:05.686Z,5.80
2018-10-17T11:44:33.294Z,6.10
2018-10-17T11:47:00.947Z,6.40
2018-10-17T11:49:28.558Z,5.33
2018-10-17T11:51:56.238Z,5.60
2018-10-17T11:54:23.916Z,5.23
2018-10-17T11:56:51.542Z,5.77
2018-10-17T11:59:19.283Z,5.03
2018-10-17T12:01:46.830Z,5.03
2018-10-17T12:04:14.720Z,5.30
2018-10-17T12:06:42.111Z,5.10
2018-10-17T12:09:09.999Z,5.17
2018-10-17T12:11:37.607Z,5.13
2018-10-17T12:14:05.510Z,5.40
2018-10-17T12:16:33.152Z,5.37
2018-10-17T12:19:00.774Z,5.33
2018-10-17T12:21:28.410Z,5.20
2018-10-17T12:23:56.044Z,5.17
2018-10-17T12:26:23.706Z,5.60
2018-10-17T12:28:51.422Z,4.90
2018-10-17T12:31:19.066Z,5.40
2018-10-17T12:33:46.715Z,4.47
2018-10-17T12:36:14.355Z,4.70
2018-10-17T12:38:41.969Z,4.67
2018-10-17T12:41:09.803Z,3.90
2018-10-17T12:43:37.314Z,4.67
2018-10-17T12:46:04.982Z,5.70
2018-10-17T12:48:32.615Z,5.10
2018-10-17T12:51:00.291Z,5.00
2018-10-17T12:53:27.988Z,4.17
2018-10-17T12:55:55.666Z,5.30
2018-10-17T12:58:23.262Z,5.63
2018-10-17T13:00:50.948Z,5.30
2018-10-17T13:03:18.735Z,5.23
2018-10-17T13:05:46.382Z,4.90
2018-10-17T13:08:14.047Z,4.93
2018-10-17T13:10:41.763Z,5.57
2018-10-17T13:13:09.483Z,5.80
2018-10-17T13:15:37.098Z,5.23
2018-10-17T13:18:05.052Z,5.90
2018-10-17T13:20:32.717Z,5.40
2018-10-17T13:23:00.578Z,4.60
2018-10-17T13:25:28.258Z,4.93
2018-10-17T13:27:55.924Z,5.23
2018-10-17T13:30:23.566Z,5.37
2018-10-17T13:32:51.199Z,5.50
2018-10-17T13:35:18.869Z,4.67
2018-10-17T13:37:46.458Z,4.80
2018-10-17T13:40:14.535Z,4.70
2018-10-17T13:42:42.158Z,4.67
2018-10-17T13:45:09.767Z,4.63
2018-10-17T13:47:37.394Z,6.03
2018-10-17T13:50:05.204Z,5.20
2018-10-17T13:52:32.835Z,5.20
2018-10-17T13:55:00.524Z,4.70
2018-10-17T13:57:28.183Z,4.97
2018-10-17T13:59:56.028Z,4.60
2018-10-17T14:02:24.057Z,4.77
2018-10-17T14:04:51.826Z,4.50
2018-10-17T14:07:19.627Z,4.97
2018-10-17T14:09:47.144Z,5.23
2018-10-17T14:12:15.048Z,4.40
2018-10-17T14:14:42.761Z,5.23
2018-10-17T14:17:10.398Z,6.00
2018-10-17T14:19:38.239Z,4.63
2018-10-17T14:22:06.465Z,5.60
2018-10-17T14:24:34.146Z,4.80
2018-10-17T14:27:01.936Z,5.03
2018-10-17T14:29:29.799Z,5.50
2018-10-17T14:31:57.438Z,5.97
2018-10-17T14:34:25.037Z,6.23
2018-10-17T14:36:52.715Z,5.20
2018-10-17T14:39:20.458Z,5.67
2018-10-17T14:41:48.145Z,5.80
2018-10-17T14:44:15.763Z,5.17
2018-10-17T14:46:43.332Z,5.53
2018-10-17T14:49:11.152Z,5.07
2018-10-17T14:51:39.091Z,5.67
2018-10-17T14:54:06.735Z,5.70
2018-10-17T14:56:34.421Z,5.03
2018-10-17T14:59:02.216Z,4.63
2018-10-17T15:01:30.181Z,4.60
2018-10-17T15:03:57.819Z,4.50
2018-10-17T15:06:25.411Z,5.13
2018-10-17T15:08:53.040Z,4.43
2018-10-17T15:11:20.903Z,5.47
2018-10-17T15:13:48.325Z,4.50
2018-10-17T15:16:16.155Z,5.40
2018-10-17T15:18:43.803Z,5.20
2018-10-17T15:21:11.519Z,5.40
2018-10-17T15:23:39.239Z,5.10
2018-10-17T15:26:06.870Z,5.70
2018-10-17T15:28:34.477Z,4.27
2018-10-17T15:31:02.151Z,5.03
2018-10-17T15:33:29.770Z,5.00
2018-10-17T15:35:57.382Z,5.20
2018-10-17T15:38:25.023Z,5.23
2018-10-17T15:40:52.779Z,4.70
2018-10-17T15:43:20.507Z,5.90
2018-10-17T15:45:48.682Z,4.90
2018-10-17T15:48:16.350Z,5.07
2018-10-17T15:50:43.957Z,5.10
2018-10-17T15:53:11.996Z,5.17
2018-10-17T15:55:39.539Z,4.90
2018-10-17T15:58:07.180Z,5.07
2018-10-17T16:00:34.830Z,4.87
2018-10-17T16:03:02.492Z,6.20
2018-10-17T16:05:30.197Z,5.17
2018-10-17T16:07:57.870Z,5.63
2018-10-17T16:10:25.477Z,5.47
2018-10-17T16:12:53.095Z,5.90
2018-10-17T16:15:20.738Z,5.87
2018-10-17T16:17:48.396Z,5.83
2018-10-17T16:20:16.110Z,5.50
2018-10-17T16:22:43.779Z,6.33
2018-10-17T16:25:11.391Z,5.40
2018-10-17T16:27:39.032Z,5.07
2018-10-17T16:30:09.011Z,6.33
2018-10-17T16:32:36.707Z,6.60
2018-10-17T16:35:05.137Z,6.00
2018-10-17T16:37:32.782Z,6.43
2018-10-17T16:40:00.385Z,6.07
2018-10-17T16:42:28.081Z,6.17
2018-10-17T16:44:55.691Z,6.40
2018-10-17T16:47:23.421Z,5.83
2018-10-17T16:49:51.106Z,6.13
2018-10-17T16:52:18.734Z,7.07
2018-10-17T16:54:46.394Z,6.83
2018-10-17T16:57:14.076Z,6.10
2018-10-17T16:59:41.648Z,6.80
2018-10-17T17:02:09.302Z,6.67
2018-10-17T17:04:37.023Z,7.73
2018-10-17T17:07:04.856Z,5.77
2018-10-17T17:09:32.518Z,6.33
2018-10-17T17:12:00.205Z,7.07
2018-10-17T17:14:27.927Z,6.20
2018-10-17T17:16:55.607Z,7.00
2018-10-17T17:19:23.339Z,7.57
2018-10-17T17:21:50.935Z,7.70
2018-10-17T17:24:18.639Z,7.50
2018-10-17T17:26:46.383Z,6.67
2018-10-17T17:29:14.051Z,6.30
2018-10-17T17:31:41.675Z,7.07
2018-10-17T17:34:09.324Z,7.03
2018-10-17T17:36:36.957Z,8.40
2018-10-17T17:39:06.808Z,8.00
2018-10-17T17:41:34.447Z,7.40
2018-10-17T17:44:02.073Z,7.93
2018-10-17T17:46:29.820Z,7.73
2018-10-17T17:48:57.458Z,7.60
2018-10-17T17:51:25.148Z,7.87
2018-10-17T17:53:52.782Z,6.97
2018-10-17T17:56:20.434Z,7.83
2018-10-17T17:58:48.103Z,7.77
2018-10-17T18:01:15.757Z,7.93
2018-10-17T18:03:43.427Z,7.63
2018-10-17T18:06:11.063Z,7.20
2018-10-17T18:08:38.723Z,7.60
2018-10-17T18:11:16.326Z,7.80
2018-10-17T18:13:44.241Z,7.73
2018-10-17T18:16:11.967Z,7.50
2018-10-17T18:18:39.617Z,7.87
2018-10-17T18:21:07.277Z,8.60
2018-10-17T18:23:34.938Z,8.50
2018-10-17T18:26:02.690Z,8.63
2018-10-17T18:28:30.342Z,9.07
2018-10-17T18:30:58.015Z,8.00
2018-10-17T18:33:25.843Z,8.80
2018-10-17T18:35:53.481Z,7.80
2018-10-17T18:38:21.108Z,7.77
2018-10-17T18:40:48.936Z,8.20
2018-10-17T18:43:16.583Z,7.53
2018-10-17T18:45:44.447Z,8.87
2018-10-17T18:48:11.942Z,8.10
2018-10-17T18:50:39.583Z,8.30
2018-10-17T18:53:07.312Z,8.50
2018-10-17T18:55:34.953Z,8.73
2018-10-17T18:58:02.710Z,9.43
2018-10-17T19:00:30.373Z,8.17
2018-10-17T19:02:58.107Z,9.07
2018-10-17T19:05:25.718Z,8.37
2018-10-17T19:07:53.382Z,8.20
2018-10-17T19:10:21.012Z,9.10
2018-10-17T19:12:48.703Z,7.90
2018-10-17T19:15:16.487Z,9.40
2018-10-17T19:17:44.082Z,7.60
2018-10-17T19:20:11.748Z,8.03
2018-10-17T19:22:39.463Z,8.10
2018-10-17T19:25:07.475Z,8.80
2018-10-17T19:27:36.268Z,8.47
2018-10-17T19:30:05.040Z,8.37
2018-10-17T19:32:32.659Z,8.10
2018-10-17T19:35:00.424Z,8.20
2018-10-17T19:37:28.218Z,8.50
2018-10-17T19:39:56.730Z,8.60
2018-10-17T19:42:24.345Z,8.93
2018-10-17T19:44:52.180Z,8.27
2018-10-17T19:47:19.833Z,8.50
2018-10-17T19:49:47.451Z,7.70
2018-10-17T19:52:15.144Z,8.00
2018-10-17T19:54:42.805Z,9.00
2018-10-17T19:57:10.523Z,8.33
2018-10-17T19:59:38.173Z,8.40
2018-10-17T20:02:06.307Z,7.70
2018-10-17T20:04:33.893Z,7.43
2018-10-17T20:07:01.568Z,8.60
2018-10-17T20:09:29.232Z,8.50
2018-10-17T20:11:56.879Z,9.53
2018-10-17T20:14:24.540Z,9.90
2018-10-17T20:16:52.396Z,14.07
2018-10-17T20:19:20.043Z,15.27
2018-10-17T20:21:47.727Z,11.63
2018-10-17T20:24:15.367Z,10.53
2018-10-17T20:26:43.026Z,12.03
2018-10-17T20:29:10.700Z,10.10
2018-10-17T20:31:38.405Z,10.33
2018-10-17T20:34:06.095Z,9.97
2018-10-17T20:36:33.892Z,10.67
2018-10-17T20:39:01.539Z,10.67
2018-10-17T20:41:29.199Z,10.80
2018-10-17T20:43:57.418Z,10.33
2018-10-17T20:46:25.049Z,10.60
2018-10-17T20:48:52.750Z,9.60
2018-10-17T20:51:20.411Z,10.23
2018-10-17T20:53:48.102Z,10.33
2018-10-17T20:56:15.825Z,10.23
2018-10-17T20:58:43.447Z,11.00
2018-10-17T21:01:11.097Z,9.80
2018-10-17T21:03:38.747Z,10.33
2018-10-17T21:06:06.365Z,10.20
2018-10-17T21:08:34.045Z,10.40
2018-10-17T21:11:01.669Z,10.13
2018-10-17T21:13:29.306Z,10.27
2018-10-17T21:15:56.966Z,10.03
2018-10-17T21:18:24.697Z,11.07
2018-10-17T21:20:52.239Z,10.53
2018-10-17T21:23:19.835Z,11.67
2018-10-17T21:25:47.547Z,11.80
2018-10-17T21:28:15.150Z,11.70
2018-10-17T21:30:42.809Z,12.00
2018-10-17T21:33:10.459Z,12.03
2018-10-17T21:35:38.121Z,11.77
2018-10-17T21:38:05.776Z,12.53
2018-10-17T21:40:33.415Z,13.07
2018-10-17T21:43:01.043Z,13.90
2018-10-17T21:45:28.725Z,13.43
2018-10-17T21:47:56.355Z,15.43
2018-10-17T21:50:23.995Z,14.80
2018-10-17T21:52:51.613Z,13.63
2018-10-17T21:55:19.258Z,13.90
2018-10-17T21:57:46.982Z,14.23
2018-10-17T22:00:14.654Z,13.07
2018-10-17T22:02:42.243Z,13.17
2018-10-17T22:05:10.596Z,13.70
2018-10-17T22:07:38.203Z,14.30
2018-10-17T22:10:06.643Z,13.77
2018-10-17T22:12:34.381Z,13.20
2018-10-17T22:15:02.152Z,14.17
2018-10-17T22:17:30.366Z,12.97
2018-10-17T22:19:58.110Z,13.70
2018-10-17T22:22:26.374Z,13.03
2018-10-17T22:24:54.682Z,13.10
2018-10-17T22:27:22.523Z,14.20
2018-10-17T22:29:50.205Z,13.50
2018-10-17T22:32:17.856Z,13.43
2018-10-17T22:34:45.838Z,13.80
2018-10-17T22:37:13.486Z,12.60
2018-10-17T22:39:41.150Z,12.20
2018-10-17T22:42:08.811Z,13.20
2018-10-17T22:44:36.575Z,12.30
2018-10-17T22:47:04.966Z,12.67
2018-10-17T22:49:32.596Z,13.23
2018-10-17T22:52:00.222Z,13.13
2018-10-17T22:54:28.038Z,11.97
2018-10-17T22:56:55.722Z,12.47
2018-10-17T22:59:23.308Z,11.37
2018-10-17T23:01:51.001Z,12.27
2018-10-17T23:04:18.671Z,13.50
2018-10-17T23:06:46.459Z,12.17
2018-10-17T23:09:15.071Z,13.83
2018-10-17T23:11:43.446Z,12.60
2018-10-17T23:14:11.474Z,12.83
2018-10-17T23:16:40.000Z,12.70
2018-10-17T23:19:08.536Z,12.17
2018-10-17T23:21:36.234Z,12.70
2018-10-17T23:24:03.934Z,11.83
2018-10-17T23:26:32.344Z,11.73
2018-10-17T23:28:59.947Z,14.00
2018-10-17T23:31:27.561Z,12.07
2018-10-17T23:33:55.144Z,12.53
2018-10-17T23:36:23.049Z,12.77
2018-10-17T23:38:51.235Z,13.00
2018-10-17T23:41:19.047Z,12.50
2018-10-17T23:43:46.840Z,14.37
2018-10-17T23:46:14.503Z,13.30
2018-10-17T23:48:42.187Z,13.43
2018-10-17T23:51:10.136Z,13.60
2018-10-17T23:53:37.819Z,12.47
2018-10-17T23:56:05.697Z,12.70
2018-10-17T23:58:33.324Z,13.20
